sensor_id;sensor_type;location;lat;lon;timestamp;pressure;altitude;pressure_sealevel;temperature;humidity
41202;BME280;26936;50.524;8.684;2022-09-06T00:01:13;99449.78;;;16.29;75.96
41202;BME280;26936;50.524;8.684;2022-09-06T00:03:39;99446.75;;;16.33;75.90
41202;BME280;26936;50.524;8.684;2022-09-06T00:06:16;99444.47;;;16.22;76.61
41202;BME280;26936;50.524;8.684;2022-09-06T00:08:43;99438.13;;;16.27;76.24
41202;BME280;26936;50.524;8.684;2022-09-06T00:11:09;99439.69;;;16.28;76.31
41202;BME280;26936;50.524;8.684;2022-09-06T00:13:35;99430.88;;;16.26;76.47
41202;BME280;26936;50.524;8.684;2022-09-06T00:16:09;99432.06;;;16.19;76.78
41202;BME280;26936;50.524;8.684;2022-09-06T00:18:34;99432.06;;;16.19;76.90
41202;BME280;26936;50.524;8.684;2022-09-06T00:20:59;99425.38;;;16.22;76.51
41202;BME280;26936;50.524;8.684;2022-09-06T00:23:25;99446.06;;;16.23;76.75
41202;BME280;26936;50.524;8.684;2022-09-06T00:25:50;99440.38;;;16.23;76.52
41202;BME280;26936;50.524;8.684;2022-09-06T00:28:15;99440.09;;;16.21;76.72
41202;BME280;26936;50.524;8.684;2022-09-06T00:30:41;99439.00;;;16.18;76.77
41202;BME280;26936;50.524;8.684;2022-09-06T00:33:06;99453.19;;;16.18;77.05
41202;BME280;26936;50.524;8.684;2022-09-06T00:35:31;99442.31;;;16.17;77.02
41202;BME280;26936;50.524;8.684;2022-09-06T00:37:59;99439.69;;;16.13;77.19
41202;BME280;26936;50.524;8.684;2022-09-06T00:40:26;99439.47;;;16.17;77.06
41202;BME280;26936;50.524;8.684;2022-09-06T00:42:51;99446.44;;;16.16;76.79
41202;BME280;26936;50.524;8.684;2022-09-06T00:45:17;99439.28;;;16.20;76.70
41202;BME280;26936;50.524;8.684;2022-09-06T00:47:43;99437.13;;;16.30;76.50
41202;BME280;26936;50.524;8.684;2022-09-06T00:50:10;99427.44;;;16.37;76.16
41202;BME280;26936;50.524;8.684;2022-09-06T00:52:37;99429.88;;;16.44;75.86
41202;BME280;26936;50.524;8.684;2022-09-06T00:55:03;99426.06;;;16.47;75.52
41202;BME280;26936;50.524;8.684;2022-09-06T00:57:29;99423.31;;;16.38;76.20
41202;BME280;26936;50.524;8.684;2022-09-06T00:59:56;99419.13;;;16.33;76.41
41202;BME280;26936;50.524;8.684;2022-09-06T01:02:23;99423.91;;;16.27;77.22
41202;BME280;26936;50.524;8.684;2022-09-06T01:04:49;99422.34;;;16.26;77.05
41202;BME280;26936;50.524;8.684;2022-09-06T01:07:55;99423.16;;;16.26;77.08
41202;BME280;26936;50.524;8.684;2022-09-06T01:10:45;99414.81;;;16.23;77.04
41202;BME280;26936;50.524;8.684;2022-09-06T01:16:30;99424.03;;;16.18;77.33
41202;BME280;26936;50.524;8.684;2022-09-06T01:24:41;99419.69;;;16.08;78.13
41202;BME280;26936;50.524;8.684;2022-09-06T01:30:02;99422.53;;;16.08;78.28
41202;BME280;26936;50.524;8.684;2022-09-06T01:32:50;99437.53;;;16.08;78.44
41202;BME280;26936;50.524;8.684;2022-09-06T01:35:37;99436.44;;;16.06;78.89
41202;BME280;26936;50.524;8.684;2022-09-06T01:38:05;99430.56;;;16.09;78.45
41202;BME280;26936;50.524;8.684;2022-09-06T01:40:31;99432.25;;;16.16;77.60
41202;BME280;26936;50.524;8.684;2022-09-06T01:43:05;99432.94;;;16.25;76.83
41202;BME280;26936;50.524;8.684;2022-09-06T01:45:38;99436.84;;;16.28;76.45
41202;BME280;26936;50.524;8.684;2022-09-06T01:48:28;99436.38;;;16.29;76.71
41202;BME280;26936;50.524;8.684;2022-09-06T01:54:33;99436.63;;;16.31;77.72
41202;BME280;26936;50.524;8.684;2022-09-06T02:00:08;99436.25;;;16.39;76.52
41202;BME280;26936;50.524;8.684;2022-09-06T02:02:47;99426.72;;;16.42;76.63
41202;BME280;26936;50.524;8.684;2022-09-06T02:05:40;99432.41;;;16.42;77.54
41202;BME280;26936;50.524;8.684;2022-09-06T02:08:38;99426.47;;;16.40;77.85
41202;BME280;26936;50.524;8.684;2022-09-06T02:11:06;99422.22;;;16.35;77.82
41202;BME280;26936;50.524;8.684;2022-09-06T02:13:37;99424.59;;;16.37;78.33
41202;BME280;26936;50.524;8.684;2022-09-06T02:16:05;99431.25;;;16.33;78.74
41202;BME280;26936;50.524;8.684;2022-09-06T02:18:41;99429.19;;;16.34;78.23
41202;BME280;26936;50.524;8.684;2022-09-06T02:21:09;99444.97;;;16.35;78.37
41202;BME280;26936;50.524;8.684;2022-09-06T02:23:38;99435.88;;;16.31;78.72
41202;BME280;26936;50.524;8.684;2022-09-06T02:26:09;99453.50;;;16.35;78.60
41202;BME280;26936;50.524;8.684;2022-09-06T02:28:36;99482.72;;;16.36;77.52
41202;BME280;26936;50.524;8.684;2022-09-06T02:31:06;99512.59;;;16.31;76.95
41202;BME280;26936;50.524;8.684;2022-09-06T02:33:34;99508.47;;;16.32;76.66
41202;BME280;26936;50.524;8.684;2022-09-06T02:36:07;99511.13;;;16.36;76.66
41202;BME280;26936;50.524;8.684;2022-09-06T02:38:35;99513.19;;;16.35;76.84
41202;BME280;26936;50.524;8.684;2022-09-06T02:41:02;99486.16;;;16.40;77.02
41202;BME280;26936;50.524;8.684;2022-09-06T02:43:28;99494.47;;;16.43;77.24
41202;BME280;26936;50.524;8.684;2022-09-06T02:45:54;99502.25;;;16.57;77.06
41202;BME280;26936;50.524;8.684;2022-09-06T02:48:19;99498.31;;;16.69;76.36
41202;BME280;26936;50.524;8.684;2022-09-06T02:50:44;99510.66;;;16.66;76.34
41202;BME280;26936;50.524;8.684;2022-09-06T02:53:14;99519.50;;;16.68;76.74
41202;BME280;26936;50.524;8.684;2022-09-06T02:55:39;99511.28;;;16.70;76.83
41202;BME280;26936;50.524;8.684;2022-09-06T02:58:08;99512.63;;;16.75;76.26
41202;BME280;26936;50.524;8.684;2022-09-06T03:00:34;99512.63;;;16.75;76.45
41202;BME280;26936;50.524;8.684;2022-09-06T03:02:59;99503.13;;;16.78;76.37
41202;BME280;26936;50.524;8.684;2022-09-06T03:05:26;99507.31;;;16.82;76.45
41202;BME280;26936;50.524;8.684;2022-09-06T03:07:52;99508.09;;;16.83;76.46
41202;BME280;26936;50.524;8.684;2022-09-06T03:10:19;99487.91;;;16.81;76.77
41202;BME280;26936;50.524;8.684;2022-09-06T03:12:44;99479.88;;;16.79;76.82
41202;BME280;26936;50.524;8.684;2022-09-06T03:15:11;99476.34;;;16.70;77.28
41202;BME280;26936;50.524;8.684;2022-09-06T03:17:38;99471.47;;;16.70;77.15
41202;BME280;26936;50.524;8.684;2022-09-06T03:20:04;99462.13;;;16.70;76.77
41202;BME280;26936;50.524;8.684;2022-09-06T03:22:30;99448.69;;;16.70;76.68
41202;BME280;26936;50.524;8.684;2022-09-06T03:24:55;99447.91;;;16.70;77.17
41202;BME280;26936;50.524;8.684;2022-09-06T03:27:21;99443.78;;;16.71;77.22
41202;BME280;26936;50.524;8.684;2022-09-06T03:29:47;99435.25;;;16.71;77.44
41202;BME280;26936;50.524;8.684;2022-09-06T03:32:12;99433.03;;;16.60;78.47
41202;BME280;26936;50.524;8.684;2022-09-06T03:34:37;99427.91;;;16.64;78.20
41202;BME280;26936;50.524;8.684;2022-09-06T03:37:02;99403.91;;;16.65;78.50
41202;BME280;26936;50.524;8.684;2022-09-06T03:39:28;99423.13;;;16.70;78.30
41202;BME280;26936;50.524;8.684;2022-09-06T03:41:53;99435.03;;;16.74;77.28
41202;BME280;26936;50.524;8.684;2022-09-06T03:44:18;99436.13;;;16.77;76.59
41202;BME280;26936;50.524;8.684;2022-09-06T03:46:44;99421.22;;;16.82;76.23
41202;BME280;26936;50.524;8.684;2022-09-06T03:49:10;99403.66;;;16.83;76.36
41202;BME280;26936;50.524;8.684;2022-09-06T03:51:35;99414.34;;;16.88;77.17
41202;BME280;26936;50.524;8.684;2022-09-06T03:54:00;99412.56;;;16.91;77.03
41202;BME280;26936;50.524;8.684;2022-09-06T03:56:26;99407.66;;;16.91;77.45
41202;BME280;26936;50.524;8.684;2022-09-06T03:58:51;99418.75;;;16.89;78.95
41202;BME280;26936;50.524;8.684;2022-09-06T04:01:17;99427.84;;;16.93;78.91
41202;BME280;26936;50.524;8.684;2022-09-06T04:03:42;99412.84;;;16.93;79.40
41202;BME280;26936;50.524;8.684;2022-09-06T04:06:07;99414.34;;;16.88;80.52
41202;BME280;26936;50.524;8.684;2022-09-06T04:08:33;99408.91;;;16.90;80.23
41202;BME280;26936;50.524;8.684;2022-09-06T04:10:59;99409.91;;;16.87;81.09
41202;BME280;26936;50.524;8.684;2022-09-06T04:13:26;99412.75;;;16.87;81.40
41202;BME280;26936;50.524;8.684;2022-09-06T04:15:51;99403.72;;;16.89;81.59
41202;BME280;26936;50.524;8.684;2022-09-06T04:18:17;99388.44;;;16.86;80.25
41202;BME280;26936;50.524;8.684;2022-09-06T04:20:46;99371.38;;;16.86;79.22
41202;BME280;26936;50.524;8.684;2022-09-06T04:23:11;99377.16;;;16.92;78.65
41202;BME280;26936;50.524;8.684;2022-09-06T04:25:37;99379.00;;;16.95;78.30
41202;BME280;26936;50.524;8.684;2022-09-06T04:28:02;99381.84;;;16.95;78.27
41202;BME280;26936;50.524;8.684;2022-09-06T04:30:27;99379.19;;;16.91;78.83
41202;BME280;26936;50.524;8.684;2022-09-06T04:32:52;99375.66;;;16.96;78.46
41202;BME280;26936;50.524;8.684;2022-09-06T04:35:18;99370.72;;;16.97;77.88
41202;BME280;26936;50.524;8.684;2022-09-06T04:37:43;99352.09;;;16.96;77.57
41202;BME280;26936;50.524;8.684;2022-09-06T04:40:08;99346.22;;;16.99;77.70
41202;BME280;26936;50.524;8.684;2022-09-06T04:42:34;99334.53;;;16.97;77.65
41202;BME280;26936;50.524;8.684;2022-09-06T04:44:59;99343.34;;;16.99;77.50
41202;BME280;26936;50.524;8.684;2022-09-06T04:47:25;99351.47;;;17.06;76.93
41202;BME280;26936;50.524;8.684;2022-09-06T04:49:50;99344.72;;;17.04;77.05
41202;BME280;26936;50.524;8.684;2022-09-06T04:52:16;99329.69;;;17.03;77.21
41202;BME280;26936;50.524;8.684;2022-09-06T04:54:41;99334.41;;;17.06;77.30
41202;BME280;26936;50.524;8.684;2022-09-06T04:57:07;99350.47;;;17.09;77.21
41202;BME280;26936;50.524;8.684;2022-09-06T04:59:32;99346.06;;;17.08;77.28
41202;BME280;26936;50.524;8.684;2022-09-06T05:01:57;99350.19;;;17.07;77.12
41202;BME280;26936;50.524;8.684;2022-09-06T05:04:23;99359.53;;;17.08;77.39
41202;BME280;26936;50.524;8.684;2022-09-06T05:06:48;99353.31;;;17.09;77.43
41202;BME280;26936;50.524;8.684;2022-09-06T05:09:13;99359.03;;;17.09;77.29
41202;BME280;26936;50.524;8.684;2022-09-06T05:11:39;99370.81;;;17.02;77.36
41202;BME280;26936;50.524;8.684;2022-09-06T05:14:04;99367.56;;;17.09;76.87
41202;BME280;26936;50.524;8.684;2022-09-06T05:16:29;99358.44;;;17.05;76.86
41202;BME280;26936;50.524;8.684;2022-09-06T05:18:54;99375.22;;;17.03;76.99
41202;BME280;26936;50.524;8.684;2022-09-06T05:21:20;99372.09;;;17.01;77.41
41202;BME280;26936;50.524;8.684;2022-09-06T05:23:45;99382.19;;;17.02;77.42
41202;BME280;26936;50.524;8.684;2022-09-06T05:26:10;99398.78;;;17.04;77.13
41202;BME280;26936;50.524;8.684;2022-09-06T05:28:36;99415.03;;;17.18;76.16
41202;BME280;26936;50.524;8.684;2022-09-06T05:31:28;99433.00;;;17.09;76.49
41202;BME280;26936;50.524;8.684;2022-09-06T05:33:54;99419.47;;;17.04;77.27
41202;BME280;26936;50.524;8.684;2022-09-06T05:36:21;99422.31;;;17.04;76.81
41202;BME280;26936;50.524;8.684;2022-09-06T05:38:51;99426.22;;;17.07;76.97
41202;BME280;26936;50.524;8.684;2022-09-06T05:41:17;99432.41;;;17.05;76.82
41202;BME280;26936;50.524;8.684;2022-09-06T05:43:42;99434.25;;;17.08;76.67
41202;BME280;26936;50.524;8.684;2022-09-06T05:46:08;99428.50;;;17.03;76.73
41202;BME280;26936;50.524;8.684;2022-09-06T05:48:33;99426.44;;;17.03;76.71
41202;BME280;26936;50.524;8.684;2022-09-06T05:51:10;99430.06;;;17.04;77.16
41202;BME280;26936;50.524;8.684;2022-09-06T05:53:43;99424.19;;;17.27;75.66
41202;BME280;26936;50.524;8.684;2022-09-06T05:56:12;99424.91;;;17.22;76.16
41202;BME280;26936;50.524;8.684;2022-09-06T05:58:38;99435.22;;;17.20;76.52
41202;BME280;26936;50.524;8.684;2022-09-06T06:03:31;99431.34;;;17.23;76.51
41202;BME280;26936;50.524;8.684;2022-09-06T06:05:56;99436.28;;;17.22;76.69
41202;BME280;26936;50.524;8.684;2022-09-06T06:08:21;99430.88;;;17.24;76.81
41202;BME280;26936;50.524;8.684;2022-09-06T06:10:46;99433.75;;;17.24;77.17
41202;BME280;26936;50.524;8.684;2022-09-06T06:13:11;99430.38;;;17.26;77.25
41202;BME280;26936;50.524;8.684;2022-09-06T06:15:37;99437.59;;;17.62;76.20
41202;BME280;26936;50.524;8.684;2022-09-06T06:18:02;99428.03;;;18.67;72.09
41202;BME280;26936;50.524;8.684;2022-09-06T06:20:27;99428.16;;;19.73;67.32
41202;BME280;26936;50.524;8.684;2022-09-06T06:22:52;99437.69;;;20.84;63.49
41202;BME280;26936;50.524;8.684;2022-09-06T06:25:18;99433.28;;;21.85;59.80
41202;BME280;26936;50.524;8.684;2022-09-06T06:27:47;99421.72;;;22.77;56.73
41202;BME280;26936;50.524;8.684;2022-09-06T06:30:12;99419.22;;;23.64;54.19
41202;BME280;26936;50.524;8.684;2022-09-06T06:32:38;99426.00;;;24.41;51.86
41202;BME280;26936;50.524;8.684;2022-09-06T06:35:04;99430.78;;;25.15;49.69
41202;BME280;26936;50.524;8.684;2022-09-06T06:37:31;99430.28;;;25.69;47.97
41202;BME280;26936;50.524;8.684;2022-09-06T06:39:57;99431.00;;;26.21;46.58
41202;BME280;26936;50.524;8.684;2022-09-06T06:42:23;99425.41;;;26.57;45.45
41202;BME280;26936;50.524;8.684;2022-09-06T06:44:48;99427.84;;;27.07;44.12
41202;BME280;26936;50.524;8.684;2022-09-06T06:47:13;99428.09;;;27.37;43.30
41202;BME280;26936;50.524;8.684;2022-09-06T06:49:39;99432.78;;;27.48;43.03
41202;BME280;26936;50.524;8.684;2022-09-06T06:52:04;99433.09;;;27.93;42.08
41202;BME280;26936;50.524;8.684;2022-09-06T06:54:29;99423.94;;;28.17;41.36
41202;BME280;26936;50.524;8.684;2022-09-06T06:56:54;99421.25;;;28.27;40.88
41202;BME280;26936;50.524;8.684;2022-09-06T06:59:20;99428.56;;;28.20;40.97
41202;BME280;26936;50.524;8.684;2022-09-06T07:01:45;99431.97;;;28.62;40.51
41202;BME280;26936;50.524;8.684;2022-09-06T07:04:11;99436.84;;;28.74;40.74
41202;BME280;26936;50.524;8.684;2022-09-06T07:06:47;99439.53;;;28.65;40.44
41202;BME280;26936;50.524;8.684;2022-09-06T07:09:14;99429.34;;;29.01;39.88
41202;BME280;26936;50.524;8.684;2022-09-06T07:11:39;99431.28;;;29.14;39.67
41202;BME280;26936;50.524;8.684;2022-09-06T07:14:04;99439.59;;;29.40;39.41
41202;BME280;26936;50.524;8.684;2022-09-06T07:16:30;99430.09;;;29.62;38.43
41202;BME280;26936;50.524;8.684;2022-09-06T07:18:55;99433.00;;;29.55;38.42
41202;BME280;26936;50.524;8.684;2022-09-06T07:21:22;99434.81;;;30.05;37.64
41202;BME280;26936;50.524;8.684;2022-09-06T07:23:51;99436.34;;;30.06;37.43
41202;BME280;26936;50.524;8.684;2022-09-06T07:26:19;99436.41;;;29.98;37.81
41202;BME280;26936;50.524;8.684;2022-09-06T07:28:45;99432.78;;;30.30;37.04
41202;BME280;26936;50.524;8.684;2022-09-06T07:31:13;99429.84;;;30.70;36.87
41202;BME280;26936;50.524;8.684;2022-09-06T07:33:39;99435.06;;;30.79;36.04
41202;BME280;26936;50.524;8.684;2022-09-06T07:36:06;99440.22;;;30.88;35.85
41202;BME280;26936;50.524;8.684;2022-09-06T07:38:32;99436.50;;;31.19;35.76
41202;BME280;26936;50.524;8.684;2022-09-06T07:41:00;99437.25;;;31.44;35.32
41202;BME280;26936;50.524;8.684;2022-09-06T07:43:26;99446.38;;;31.83;34.66
41202;BME280;26936;50.524;8.684;2022-09-06T07:46:08;99438.06;;;32.30;33.80
41202;BME280;26936;50.524;8.684;2022-09-06T07:48:36;99445.69;;;32.26;33.51
41202;BME280;26936;50.524;8.684;2022-09-06T07:53:31;99438.56;;;32.53;33.07
41202;BME280;26936;50.524;8.684;2022-09-06T07:56:00;99438.66;;;32.72;32.33
41202;BME280;26936;50.524;8.684;2022-09-06T07:58:28;99441.53;;;32.89;32.54
41202;BME280;26936;50.524;8.684;2022-09-06T08:00:53;99433.78;;;33.11;32.17
41202;BME280;26936;50.524;8.684;2022-09-06T08:03:18;99440.47;;;33.31;31.91
41202;BME280;26936;50.524;8.684;2022-09-06T08:05:47;99439.53;;;33.74;31.30
41202;BME280;26936;50.524;8.684;2022-09-06T08:08:13;99440.41;;;33.48;31.34
41202;BME280;26936;50.524;8.684;2022-09-06T08:10:38;99438.94;;;33.94;31.16
41202;BME280;26936;50.524;8.684;2022-09-06T08:13:03;99432.97;;;34.11;30.71
41202;BME280;26936;50.524;8.684;2022-09-06T08:15:28;99444.00;;;34.32;30.58
41202;BME280;26936;50.524;8.684;2022-09-06T08:17:55;99435.25;;;34.42;29.94
41202;BME280;26936;50.524;8.684;2022-09-06T08:20:21;99433.38;;;34.65;29.72
41202;BME280;26936;50.524;8.684;2022-09-06T08:22:46;99439.84;;;34.54;29.57
41202;BME280;26936;50.524;8.684;2022-09-06T08:25:11;99425.09;;;33.95;30.87
41202;BME280;26936;50.524;8.684;2022-09-06T08:27:36;99428.94;;;34.45;30.34
41202;BME280;26936;50.524;8.684;2022-09-06T08:30:02;99419.75;;;33.36;31.82
41202;BME280;26936;50.524;8.684;2022-09-06T08:32:27;99417.38;;;32.53;32.90
41202;BME280;26936;50.524;8.684;2022-09-06T08:34:52;99425.50;;;32.81;33.22
41202;BME280;26936;50.524;8.684;2022-09-06T08:37:18;99425.75;;;32.92;32.76
41202;BME280;26936;50.524;8.684;2022-09-06T08:39:43;99425.06;;;33.76;31.62
41202;BME280;26936;50.524;8.684;2022-09-06T08:42:10;99425.00;;;33.01;32.30
41202;BME280;26936;50.524;8.684;2022-09-06T08:44:39;99423.91;;;32.70;32.92
41202;BME280;26936;50.524;8.684;2022-09-06T08:49:35;99423.56;;;33.39;31.72
41202;BME280;26936;50.524;8.684;2022-09-06T08:52:30;99426.50;;;33.39;31.80
41202;BME280;26936;50.524;8.684;2022-09-06T08:57:53;99418.31;;;33.18;31.58
41202;BME280;26936;50.524;8.684;2022-09-06T09:00:19;99421.50;;;33.68;31.03
41202;BME280;26936;50.524;8.684;2022-09-06T09:02:48;99419.66;;;33.08;31.66
41202;BME280;26936;50.524;8.684;2022-09-06T09:05:25;99414.38;;;32.70;31.80
41202;BME280;26936;50.524;8.684;2022-09-06T09:10:47;99412.03;;;32.59;32.45
41202;BME280;26936;50.524;8.684;2022-09-06T09:13:21;99407.59;;;32.14;32.98
41202;BME280;26936;50.524;8.684;2022-09-06T09:15:49;99409.53;;;33.09;32.08
41202;BME280;26936;50.524;8.684;2022-09-06T09:18:22;99393.03;;;33.40;31.33
41202;BME280;26936;50.524;8.684;2022-09-06T09:20:49;99399.47;;;32.66;32.12
41202;BME280;26936;50.524;8.684;2022-09-06T09:23:14;99393.44;;;32.11;33.30
41202;BME280;26936;50.524;8.684;2022-09-06T09:25:40;99394.66;;;32.51;32.72
41202;BME280;26936;50.524;8.684;2022-09-06T09:28:15;99393.25;;;33.15;31.93
41202;BME280;26936;50.524;8.684;2022-09-06T09:30:48;99397.66;;;32.97;31.83
41202;BME280;26936;50.524;8.684;2022-09-06T09:33:43;99387.28;;;32.86;32.73
41202;BME280;26936;50.524;8.684;2022-09-06T09:36:12;99380.72;;;32.59;32.66
41202;BME280;26936;50.524;8.684;2022-09-06T09:38:45;99382.47;;;32.45;32.60
41202;BME280;26936;50.524;8.684;2022-09-06T09:41:31;99384.13;;;32.39;32.87
41202;BME280;26936;50.524;8.684;2022-09-06T09:44:16;99373.41;;;32.41;33.04
41202;BME280;26936;50.524;8.684;2022-09-06T09:46:43;99369.16;;;32.88;32.38
41202;BME280;26936;50.524;8.684;2022-09-06T09:49:13;99368.25;;;32.85;32.59
41202;BME280;26936;50.524;8.684;2022-09-06T09:51:51;99373.47;;;32.51;33.31
41202;BME280;26936;50.524;8.684;2022-09-06T09:54:33;99362.31;;;32.93;32.32
41202;BME280;26936;50.524;8.684;2022-09-06T09:56:59;99368.31;;;32.95;32.24
41202;BME280;26936;50.524;8.684;2022-09-06T09:59:30;99361.03;;;32.50;32.93
41202;BME280;26936;50.524;8.684;2022-09-06T10:02:00;99347.03;;;33.12;32.30
41202;BME280;26936;50.524;8.684;2022-09-06T10:04:32;99348.44;;;33.39;31.71
41202;BME280;26936;50.524;8.684;2022-09-06T10:07:15;99350.59;;;33.29;31.87
41202;BME280;26936;50.524;8.684;2022-09-06T10:09:45;99348.94;;;33.45;31.72
41202;BME280;26936;50.524;8.684;2022-09-06T10:12:17;99350.72;;;33.12;32.01
41202;BME280;26936;50.524;8.684;2022-09-06T10:14:45;99350.38;;;32.72;32.84
41202;BME280;26936;50.524;8.684;2022-09-06T10:18:03;99344.56;;;32.72;32.32
41202;BME280;26936;50.524;8.684;2022-09-06T10:20:08;99339.47;;;32.99;32.39
41202;BME280;26936;50.524;8.684;2022-09-06T10:25:45;99326.13;;;33.06;31.65
41202;BME280;26936;50.524;8.684;2022-09-06T10:33:54;99326.03;;;33.42;31.71
41202;BME280;26936;50.524;8.684;2022-09-06T10:36:32;99317.75;;;33.48;31.66
41202;BME280;26936;50.524;8.684;2022-09-06T10:47:20;99317.22;;;33.13;30.99
41202;BME280;26936;50.524;8.684;2022-09-06T10:49:52;99314.91;;;33.12;31.34
41202;BME280;26936;50.524;8.684;2022-09-06T10:52:25;99322.06;;;33.66;31.28
41202;BME280;26936;50.524;8.684;2022-09-06T10:54:54;99323.59;;;34.05;29.77
41202;BME280;26936;50.524;8.684;2022-09-06T10:57:25;99308.66;;;34.01;30.49
41202;BME280;26936;50.524;8.684;2022-09-06T11:00:01;99314.28;;;34.37;29.72
41202;BME280;26936;50.524;8.684;2022-09-06T11:05:21;99300.53;;;33.71;30.26
41202;BME280;26936;50.524;8.684;2022-09-06T11:07:55;99305.41;;;33.21;31.01
41202;BME280;26936;50.524;8.684;2022-09-06T11:10:29;99292.81;;;33.09;30.85
41202;BME280;26936;50.524;8.684;2022-09-06T11:13:22;99282.53;;;33.36;30.50
41202;BME280;26936;50.524;8.684;2022-09-06T11:16:02;99296.94;;;33.06;31.57
41202;BME280;26936;50.524;8.684;2022-09-06T11:18:56;99298.72;;;32.46;32.43
41202;BME280;26936;50.524;8.684;2022-09-06T11:21:49;99295.53;;;32.97;31.83
41202;BME280;26936;50.524;8.684;2022-09-06T11:29:55;99286.69;;;32.78;31.66
41202;BME280;26936;50.524;8.684;2022-09-06T11:32:32;99286.19;;;33.27;31.05
41202;BME280;26936;50.524;8.684;2022-09-06T11:35:00;99289.47;;;33.60;31.54
41202;BME280;26936;50.524;8.684;2022-09-06T11:37:34;99287.44;;;34.00;30.67
41202;BME280;26936;50.524;8.684;2022-09-06T11:40:21;99284.50;;;34.10;30.30
41202;BME280;26936;50.524;8.684;2022-09-06T11:45:20;99284.91;;;34.75;29.29
41202;BME280;26936;50.524;8.684;2022-09-06T11:47:50;99275.81;;;34.71;28.96
41202;BME280;26936;50.524;8.684;2022-09-06T11:55:38;99273.47;;;33.80;30.73
41202;BME280;26936;50.524;8.684;2022-09-06T11:58:09;99269.56;;;32.91;31.30
41202;BME280;26936;50.524;8.684;2022-09-06T12:00:44;99265.53;;;32.87;31.83
41202;BME280;26936;50.524;8.684;2022-09-06T12:03:59;99264.53;;;33.01;31.93
41202;BME280;26936;50.524;8.684;2022-09-06T12:08:46;99261.94;;;33.15;31.45
41202;BME280;26936;50.524;8.684;2022-09-06T12:11:38;99257.78;;;33.09;32.09
41202;BME280;26936;50.524;8.684;2022-09-06T12:14:27;99252.41;;;32.50;33.14
41202;BME280;26936;50.524;8.684;2022-09-06T12:20:00;99241.97;;;31.94;33.58
41202;BME280;26936;50.524;8.684;2022-09-06T12:25:48;99253.09;;;31.27;34.83
41202;BME280;26936;50.524;8.684;2022-09-06T12:27:54;99249.38;;;31.34;35.05
41202;BME280;26936;50.524;8.684;2022-09-06T12:30:41;99241.56;;;31.53;35.19
41202;BME280;26936;50.524;8.684;2022-09-06T12:33:13;99242.81;;;31.60;34.80
41202;BME280;26936;50.524;8.684;2022-09-06T12:35:40;99242.75;;;31.33;35.00
41202;BME280;26936;50.524;8.684;2022-09-06T12:38:08;99238.78;;;31.21;35.11
41202;BME280;26936;50.524;8.684;2022-09-06T12:40:38;99233.44;;;31.18;34.99
41202;BME280;26936;50.524;8.684;2022-09-06T12:43:08;99236.69;;;31.05;35.03
41202;BME280;26936;50.524;8.684;2022-09-06T12:45:34;99235.13;;;31.21;35.31
41202;BME280;26936;50.524;8.684;2022-09-06T12:48:06;99228.78;;;31.15;34.85
41202;BME280;26936;50.524;8.684;2022-09-06T12:50:33;99229.47;;;31.06;35.14
41202;BME280;26936;50.524;8.684;2022-09-06T12:53:00;99222.81;;;30.96;35.13
41202;BME280;26936;50.524;8.684;2022-09-06T12:55:32;99214.59;;;30.85;35.98
41202;BME280;26936;50.524;8.684;2022-09-06T12:58:04;99211.94;;;30.79;35.90
41202;BME280;26936;50.524;8.684;2022-09-06T13:00:33;99212.63;;;30.87;34.52
41202;BME280;26936;50.524;8.684;2022-09-06T13:03:28;99212.09;;;31.15;34.12
41202;BME280;26936;50.524;8.684;2022-09-06T13:05:56;99214.69;;;31.11;34.29
41202;BME280;26936;50.524;8.684;2022-09-06T13:08:32;99207.59;;;31.05;33.86
41202;BME280;26936;50.524;8.684;2022-09-06T13:10:59;99213.47;;;30.97;34.25
41202;BME280;26936;50.524;8.684;2022-09-06T13:13:25;99202.13;;;30.92;34.02
41202;BME280;26936;50.524;8.684;2022-09-06T13:15:51;99210.00;;;30.74;34.03
41202;BME280;26936;50.524;8.684;2022-09-06T13:18:36;99203.25;;;30.72;34.56
41202;BME280;26936;50.524;8.684;2022-09-06T13:21:05;99196.06;;;30.73;34.56
41202;BME280;26936;50.524;8.684;2022-09-06T13:23:43;99193.66;;;30.62;34.30
41202;BME280;26936;50.524;8.684;2022-09-06T13:26:09;99189.84;;;30.76;35.01
41202;BME280;26936;50.524;8.684;2022-09-06T13:28:34;99199.69;;;30.81;34.87
41202;BME280;26936;50.524;8.684;2022-09-06T13:33:27;99190.66;;;30.52;36.17
41202;BME280;26936;50.524;8.684;2022-09-06T13:36:13;99193.09;;;30.14;37.24
41202;BME280;26936;50.524;8.684;2022-09-06T13:38:41;99191.78;;;30.39;35.09
41202;BME280;26936;50.524;8.684;2022-09-06T13:44:01;99187.25;;;29.97;35.67
41202;BME280;26936;50.524;8.684;2022-09-06T13:46:28;99188.13;;;30.07;35.74
41202;BME280;26936;50.524;8.684;2022-09-06T13:48:55;99177.38;;;30.24;36.08
41202;BME280;26936;50.524;8.684;2022-09-06T13:51:21;99185.00;;;30.37;35.64
41202;BME280;26936;50.524;8.684;2022-09-06T13:53:47;99182.78;;;30.45;34.51
41202;BME280;26936;50.524;8.684;2022-09-06T13:56:13;99176.91;;;30.52;35.12
41202;BME280;26936;50.524;8.684;2022-09-06T13:58:39;99178.53;;;30.46;36.81
41202;BME280;26936;50.524;8.684;2022-09-06T14:01:05;99179.38;;;30.56;36.45
41202;BME280;26936;50.524;8.684;2022-09-06T14:03:34;99171.75;;;30.26;36.87
41202;BME280;26936;50.524;8.684;2022-09-06T14:06:00;99169.72;;;30.53;36.99
41202;BME280;26936;50.524;8.684;2022-09-06T14:08:26;99170.31;;;30.52;36.06
41202;BME280;26936;50.524;8.684;2022-09-06T14:10:52;99164.78;;;30.64;35.62
41202;BME280;26936;50.524;8.684;2022-09-06T14:13:18;99167.59;;;30.54;35.73
41202;BME280;26936;50.524;8.684;2022-09-06T14:15:49;99165.66;;;30.32;36.07
41202;BME280;26936;50.524;8.684;2022-09-06T14:18:15;99160.97;;;30.36;36.03
41202;BME280;26936;50.524;8.684;2022-09-06T14:20:41;99155.41;;;30.06;36.53
41202;BME280;26936;50.524;8.684;2022-09-06T14:23:07;99151.75;;;30.30;35.02
41202;BME280;26936;50.524;8.684;2022-09-06T14:25:34;99145.38;;;30.49;33.49
41202;BME280;26936;50.524;8.684;2022-09-06T14:28:03;99152.72;;;30.50;33.35
41202;BME280;26936;50.524;8.684;2022-09-06T14:30:29;99151.28;;;30.59;34.01